sensor_id;sensor_type;location;lat;lon;timestamp;temperature;humidity
11599;DHT22;5855;48.840;9.188;2023-07-13T00:00:35;20.00;99.90
11599;DHT22;5855;48.840;9.188;2023-07-13T00:03:04;20.00;99.90
11599;DHT22;5855;48.840;9.188;2023-07-13T00:05:31;19.90;99.90
11599;DHT22;5855;48.840;9.188;2023-07-13T00:07:58;19.90;99.90
11599;DHT22;5855;48.840;9.188;2023-07-13T00:10:25;19.90;99.90
11599;DHT22;5855;48.840;9.188;2023-07-13T00:12:52;19.80;99.90
11599;DHT22;5855;48.840;9.188;2023-07-13T00:15:23;19.80;99.90
11599;DHT22;5855;48.840;9.188;2023-07-13T00:17:50;19.80;99.90
11599;DHT22;5855;48.840;9.188;2023-07-13T00:20:19;19.70;99.90
11599;DHT22;5855;48.840;9.188;2023-07-13T00:22:47;19.70;99.90
11599;DHT22;5855;48.840;9.188;2023-07-13T00:25:15;19.60;99.90
11599;DHT22;5855;48.840;9.188;2023-07-13T00:27:42;19.60;99.90
11599;DHT22;5855;48.840;9.188;2023-07-13T00:30:09;19.60;99.90
11599;DHT22;5855;48.840;9.188;2023-07-13T00:32:37;19.50;99.90
11599;DHT22;5855;48.840;9.188;2023-07-13T00:35:04;19.50;99.90
11599;DHT22;5855;48.840;9.188;2023-07-13T00:37:33;19.50;99.90
11599;DHT22;5855;48.840;9.188;2023-07-13T00:40:01;19.40;99.90
11599;DHT22;5855;48.840;9.188;2023-07-13T00:42:28;19.40;99.90
11599;DHT22;5855;48.840;9.188;2023-07-13T00:45:04;19.30;99.90
11599;DHT22;5855;48.840;9.188;2023-07-13T00:47:34;19.30;99.90
11599;DHT22;5855;48.840;9.188;2023-07-13T00:50:01;19.20;99.90
11599;DHT22;5855;48.840;9.188;2023-07-13T00:52:29;19.20;99.90
11599;DHT22;5855;48.840;9.188;2023-07-13T00:54:58;19.20;99.90
11599;DHT22;5855;48.840;9.188;2023-07-13T00:57:27;19.10;99.90
11599;DHT22;5855;48.840;9.188;2023-07-13T00:59:57;19.10;99.90
11599;DHT22;5855;48.840;9.188;2023-07-13T01:02:25;19.10;99.90
11599;DHT22;5855;48.840;9.188;2023-07-13T01:04:53;19.10;99.90
11599;DHT22;5855;48.840;9.188;2023-07-13T01:07:20;19.00;99.90
11599;DHT22;5855;48.840;9.188;2023-07-13T01:09:47;19.00;99.90
11599;DHT22;5855;48.840;9.188;2023-07-13T01:12:15;19.00;99.90
11599;DHT22;5855;48.840;9.188;2023-07-13T01:14:42;18.90;99.90
11599;DHT22;5855;48.840;9.188;2023-07-13T01:17:09;18.90;99.90
11599;DHT22;5855;48.840;9.188;2023-07-13T01:19:39;18.90;99.90
11599;DHT22;5855;48.840;9.188;2023-07-13T01:22:10;18.80;99.90
11599;DHT22;5855;48.840;9.188;2023-07-13T01:24:37;18.80;99.90
11599;DHT22;5855;48.840;9.188;2023-07-13T01:27:06;18.80;99.90
11599;DHT22;5855;48.840;9.188;2023-07-13T01:29:34;18.70;99.90
11599;DHT22;5855;48.840;9.188;2023-07-13T01:32:08;18.70;99.90
11599;DHT22;5855;48.840;9.188;2023-07-13T01:34:35;18.70;99.90
11599;DHT22;5855;48.840;9.188;2023-07-13T01:37:03;18.60;99.90
11599;DHT22;5855;48.840;9.188;2023-07-13T01:39:31;18.60;99.90
11599;DHT22;5855;48.840;9.188;2023-07-13T01:41:58;18.60;99.90
11599;DHT22;5855;48.840;9.188;2023-07-13T01:44:25;18.60;99.90
11599;DHT22;5855;48.840;9.188;2023-07-13T01:46:52;18.60;99.90
11599;DHT22;5855;48.840;9.188;2023-07-13T01:49:19;18.60;99.90
11599;DHT22;5855;48.840;9.188;2023-07-13T01:51:46;18.60;99.90
11599;DHT22;5855;48.840;9.188;2023-07-13T01:54:13;18.60;99.90
11599;DHT22;5855;48.840;9.188;2023-07-13T01:56:41;18.60;99.90
11599;DHT22;5855;48.840;9.188;2023-07-13T01:59:08;18.60;99.90
11599;DHT22;5855;48.840;9.188;2023-07-13T02:01:35;18.50;99.90
11599;DHT22;5855;48.840;9.188;2023-07-13T02:04:01;18.50;99.90
11599;DHT22;5855;48.840;9.188;2023-07-13T02:06:28;18.50;99.90
11599;DHT22;5855;48.840;9.188;2023-07-13T02:08:55;18.50;99.90
11599;DHT22;5855;48.840;9.188;2023-07-13T02:11:22;18.50;99.90
11599;DHT22;5855;48.840;9.188;2023-07-13T02:13:51;18.40;99.90
11599;DHT22;5855;48.840;9.188;2023-07-13T02:16:18;18.40;99.90
11599;DHT22;5855;48.840;9.188;2023-07-13T02:18:45;18.40;99.90
11599;DHT22;5855;48.840;9.188;2023-07-13T02:21:12;18.30;99.90
11599;DHT22;5855;48.840;9.188;2023-07-13T02:23:38;18.20;99.90
11599;DHT22;5855;48.840;9.188;2023-07-13T02:26:05;18.20;99.90
11599;DHT22;5855;48.840;9.188;2023-07-13T02:28:32;18.10;99.90
11599;DHT22;5855;48.840;9.188;2023-07-13T02:31:06;18.10;99.90
11599;DHT22;5855;48.840;9.188;2023-07-13T02:33:33;18.10;99.90
11599;DHT22;5855;48.840;9.188;2023-07-13T02:36:00;18.00;99.90
11599;DHT22;5855;48.840;9.188;2023-07-13T02:38:26;18.00;99.90
11599;DHT22;5855;48.840;9.188;2023-07-13T02:40:53;17.90;99.90
11599;DHT22;5855;48.840;9.188;2023-07-13T02:43:21;17.90;99.90
11599;DHT22;5855;48.840;9.188;2023-07-13T02:45:48;17.80;99.90
11599;DHT22;5855;48.840;9.188;2023-07-13T02:48:16;17.80;99.90
11599;DHT22;5855;48.840;9.188;2023-07-13T02:50:44;17.70;99.90
11599;DHT22;5855;48.840;9.188;2023-07-13T02:53:11;17.70;99.90
11599;DHT22;5855;48.840;9.188;2023-07-13T02:55:39;17.60;99.90
11599;DHT22;5855;48.840;9.188;2023-07-13T02:58:06;17.60;99.90
11599;DHT22;5855;48.840;9.188;2023-07-13T03:00:33;17.60;99.90
11599;DHT22;5855;48.840;9.188;2023-07-13T03:03:00;17.60;99.90
11599;DHT22;5855;48.840;9.188;2023-07-13T03:05:28;17.60;99.90
11599;DHT22;5855;48.840;9.188;2023-07-13T03:07:55;17.50;99.90
11599;DHT22;5855;48.840;9.188;2023-07-13T03:10:21;17.50;99.90
11599;DHT22;5855;48.840;9.188;2023-07-13T03:12:48;17.50;99.90
11599;DHT22;5855;48.840;9.188;2023-07-13T03:15:15;17.50;99.90
11599;DHT22;5855;48.840;9.188;2023-07-13T03:17:42;17.50;99.90
11599;DHT22;5855;48.840;9.188;2023-07-13T03:20:09;17.40;99.90
11599;DHT22;5855;48.840;9.188;2023-07-13T03:22:38;17.30;99.90
11599;DHT22;5855;48.840;9.188;2023-07-13T03:25:06;17.30;99.90
11599;DHT22;5855;48.840;9.188;2023-07-13T03:27:33;17.20;99.90
11599;DHT22;5855;48.840;9.188;2023-07-13T03:29:59;17.20;99.90
11599;DHT22;5855;48.840;9.188;2023-07-13T03:32:26;17.10;99.90
11599;DHT22;5855;48.840;9.188;2023-07-13T03:34:53;17.20;99.90
11599;DHT22;5855;48.840;9.188;2023-07-13T03:37:20;17.20;99.90
11599;DHT22;5855;48.840;9.188;2023-07-13T03:39:48;17.30;99.90
11599;DHT22;5855;48.840;9.188;2023-07-13T03:42:15;17.40;99.90
11599;DHT22;5855;48.840;9.188;2023-07-13T03:44:42;17.40;99.90
11599;DHT22;5855;48.840;9.188;2023-07-13T03:47:11;17.50;99.90
11599;DHT22;5855;48.840;9.188;2023-07-13T03:49:38;17.50;99.90
11599;DHT22;5855;48.840;9.188;2023-07-13T03:52:06;17.60;99.90
11599;DHT22;5855;48.840;9.188;2023-07-13T03:54:33;17.70;99.90
11599;DHT22;5855;48.840;9.188;2023-07-13T03:57:01;17.70;99.90
11599;DHT22;5855;48.840;9.188;2023-07-13T03:59:47;17.80;99.90
11599;DHT22;5855;48.840;9.188;2023-07-13T04:02:14;17.80;99.90
11599;DHT22;5855;48.840;9.188;2023-07-13T04:04:41;17.90;99.90
11599;DHT22;5855;48.840;9.188;2023-07-13T04:07:08;17.90;99.90
11599;DHT22;5855;48.840;9.188;2023-07-13T04:09:34;18.00;99.90
11599;DHT22;5855;48.840;9.188;2023-07-13T04:12:03;18.00;99.90
11599;DHT22;5855;48.840;9.188;2023-07-13T04:14:30;18.00;99.90
11599;DHT22;5855;48.840;9.188;2023-07-13T04:16:58;18.10;99.90
11599;DHT22;5855;48.840;9.188;2023-07-13T04:19:25;18.20;99.90
11599;DHT22;5855;48.840;9.188;2023-07-13T04:21:55;18.20;99.90
11599;DHT22;5855;48.840;9.188;2023-07-13T04:24:22;18.20;99.90
11599;DHT22;5855;48.840;9.188;2023-07-13T04:26:49;18.30;99.90
11599;DHT22;5855;48.840;9.188;2023-07-13T04:29:18;18.30;99.90
11599;DHT22;5855;48.840;9.188;2023-07-13T04:31:44;18.30;99.90
11599;DHT22;5855;48.840;9.188;2023-07-13T04:34:11;18.40;99.90
11599;DHT22;5855;48.840;9.188;2023-07-13T04:36:38;18.40;99.90
11599;DHT22;5855;48.840;9.188;2023-07-13T04:39:05;18.40;99.90
11599;DHT22;5855;48.840;9.188;2023-07-13T04:41:32;18.40;99.90
11599;DHT22;5855;48.840;9.188;2023-07-13T04:43:59;18.40;99.90
11599;DHT22;5855;48.840;9.188;2023-07-13T04:46:27;18.40;99.90
11599;DHT22;5855;48.840;9.188;2023-07-13T04:48:54;18.40;99.90
11599;DHT22;5855;48.840;9.188;2023-07-13T04:51:21;18.40;99.90
11599;DHT22;5855;48.840;9.188;2023-07-13T04:53:48;18.30;99.90
11599;DHT22;5855;48.840;9.188;2023-07-13T04:56:14;18.40;99.90
11599;DHT22;5855;48.840;9.188;2023-07-13T04:58:41;18.40;99.90
11599;DHT22;5855;48.840;9.188;2023-07-13T05:01:09;18.40;99.90
11599;DHT22;5855;48.840;9.188;2023-07-13T05:03:38;18.40;99.90
11599;DHT22;5855;48.840;9.188;2023-07-13T05:06:06;18.40;99.90
11599;DHT22;5855;48.840;9.188;2023-07-13T05:08:35;18.60;99.90
11599;DHT22;5855;48.840;9.188;2023-07-13T05:11:04;18.50;99.90
11599;DHT22;5855;48.840;9.188;2023-07-13T05:13:32;18.50;99.90
11599;DHT22;5855;48.840;9.188;2023-07-13T05:16:02;18.60;99.90
11599;DHT22;5855;48.840;9.188;2023-07-13T05:18:29;18.70;99.90
11599;DHT22;5855;48.840;9.188;2023-07-13T05:21:02;18.90;99.90
11599;DHT22;5855;48.840;9.188;2023-07-13T05:23:30;19.00;99.90
11599;DHT22;5855;48.840;9.188;2023-07-13T05:25:57;19.10;99.90
11599;DHT22;5855;48.840;9.188;2023-07-13T05:28:24;19.10;99.90
11599;DHT22;5855;48.840;9.188;2023-07-13T05:30:51;19.30;99.90
11599;DHT22;5855;48.840;9.188;2023-07-13T05:33:19;19.30;99.90
11599;DHT22;5855;48.840;9.188;2023-07-13T05:35:46;19.30;99.90
11599;DHT22;5855;48.840;9.188;2023-07-13T05:38:15;19.30;99.90
11599;DHT22;5855;48.840;9.188;2023-07-13T05:40:45;19.30;99.90
11599;DHT22;5855;48.840;9.188;2023-07-13T05:43:13;19.30;99.90
11599;DHT22;5855;48.840;9.188;2023-07-13T05:45:41;19.30;99.90
11599;DHT22;5855;48.840;9.188;2023-07-13T05:48:08;19.30;99.90
11599;DHT22;5855;48.840;9.188;2023-07-13T05:50:35;19.20;99.90
11599;DHT22;5855;48.840;9.188;2023-07-13T05:53:02;19.20;99.90
11599;DHT22;5855;48.840;9.188;2023-07-13T05:55:30;19.20;99.90
11599;DHT22;5855;48.840;9.188;2023-07-13T05:57:57;19.20;99.90
11599;DHT22;5855;48.840;9.188;2023-07-13T06:00:24;19.30;99.90
11599;DHT22;5855;48.840;9.188;2023-07-13T06:02:51;19.20;99.90
11599;DHT22;5855;48.840;9.188;2023-07-13T06:05:18;19.30;99.90
11599;DHT22;5855;48.840;9.188;2023-07-13T06:07:45;19.30;99.90
11599;DHT22;5855;48.840;9.188;2023-07-13T06:10:12;19.40;99.90
11599;DHT22;5855;48.840;9.188;2023-07-13T06:12:40;19.50;99.90
11599;DHT22;5855;48.840;9.188;2023-07-13T06:15:08;19.60;99.90
11599;DHT22;5855;48.840;9.188;2023-07-13T06:17:35;19.70;99.90
11599;DHT22;5855;48.840;9.188;2023-07-13T06:20:01;19.80;99.90
11599;DHT22;5855;48.840;9.188;2023-07-13T06:22:28;19.80;99.90
11599;DHT22;5855;48.840;9.188;2023-07-13T06:24:55;19.70;99.90
11599;DHT22;5855;48.840;9.188;2023-07-13T06:27:22;19.70;99.90
11599;DHT22;5855;48.840;9.188;2023-07-13T06:29:50;19.70;99.90
11599;DHT22;5855;48.840;9.188;2023-07-13T06:32:17;19.70;99.90
11599;DHT22;5855;48.840;9.188;2023-07-13T06:34:44;19.90;99.90
11599;DHT22;5855;48.840;9.188;2023-07-13T06:37:11;20.00;99.90
11599;DHT22;5855;48.840;9.188;2023-07-13T06:39:38;20.00;99.90
11599;DHT22;5855;48.840;9.188;2023-07-13T06:42:06;20.00;99.90
11599;DHT22;5855;48.840;9.188;2023-07-13T06:44:33;20.20;99.90
11599;DHT22;5855;48.840;9.188;2023-07-13T06:47:01;20.30;99.90
11599;DHT22;5855;48.840;9.188;2023-07-13T06:49:28;20.30;99.90
11599;DHT22;5855;48.840;9.188;2023-07-13T06:51:54;20.50;99.90
11599;DHT22;5855;48.840;9.188;2023-07-13T06:54:21;20.60;99.90
11599;DHT22;5855;48.840;9.188;2023-07-13T06:56:48;20.70;99.90
11599;DHT22;5855;48.840;9.188;2023-07-13T06:59:15;20.70;99.90
11599;DHT22;5855;48.840;9.188;2023-07-13T07:01:41;20.90;99.90
11599;DHT22;5855;48.840;9.188;2023-07-13T07:04:10;21.00;99.90
11599;DHT22;5855;48.840;9.188;2023-07-13T07:06:37;21.10;99.90
11599;DHT22;5855;48.840;9.188;2023-07-13T07:09:04;21.20;99.90
11599;DHT22;5855;48.840;9.188;2023-07-13T07:11:30;21.30;99.90
11599;DHT22;5855;48.840;9.188;2023-07-13T07:13:57;21.30;99.90
11599;DHT22;5855;48.840;9.188;2023-07-13T07:16:25;21.30;99.90
11599;DHT22;5855;48.840;9.188;2023-07-13T07:18:52;21.40;99.90
11599;DHT22;5855;48.840;9.188;2023-07-13T07:21:20;21.40;99.90
11599;DHT22;5855;48.840;9.188;2023-07-13T07:23:48;21.60;99.90
11599;DHT22;5855;48.840;9.188;2023-07-13T07:26:15;21.90;99.20
11599;DHT22;5855;48.840;9.188;2023-07-13T07:28:42;21.90;99.10
11599;DHT22;5855;48.840;9.188;2023-07-13T07:31:09;21.80;97.40
11599;DHT22;5855;48.840;9.188;2023-07-13T07:33:36;21.90;97.20
11599;DHT22;5855;48.840;9.188;2023-07-13T07:36:04;22.00;97.00
11599;DHT22;5855;48.840;9.188;2023-07-13T07:38:32;22.20;96.60
11599;DHT22;5855;48.840;9.188;2023-07-13T07:41:02;22.20;96.00
11599;DHT22;5855;48.840;9.188;2023-07-13T07:43:29;22.50;96.10
11599;DHT22;5855;48.840;9.188;2023-07-13T07:45:56;22.70;95.50
11599;DHT22;5855;48.840;9.188;2023-07-13T07:48:23;22.80;94.50
11599;DHT22;5855;48.840;9.188;2023-07-13T07:50:58;22.80;94.30
11599;DHT22;5855;48.840;9.188;2023-07-13T07:53:25;22.90;94.00
11599;DHT22;5855;48.840;9.188;2023-07-13T07:55:53;23.10;94.20
11599;DHT22;5855;48.840;9.188;2023-07-13T07:58:20;23.10;94.00
11599;DHT22;5855;48.840;9.188;2023-07-13T08:00:46;23.20;94.40
11599;DHT22;5855;48.840;9.188;2023-07-13T08:03:13;23.40;94.10
11599;DHT22;5855;48.840;9.188;2023-07-13T08:05:40;23.50;93.30
11599;DHT22;5855;48.840;9.188;2023-07-13T08:08:07;23.60;92.00
11599;DHT22;5855;48.840;9.188;2023-07-13T08:10:36;23.60;91.70
11599;DHT22;5855;48.840;9.188;2023-07-13T08:13:04;23.60;90.50
11599;DHT22;5855;48.840;9.188;2023-07-13T08:15:31;23.80;90.70
11599;DHT22;5855;48.840;9.188;2023-07-13T08:17:58;23.80;90.30
11599;DHT22;5855;48.840;9.188;2023-07-13T08:20:25;24.00;90.40
11599;DHT22;5855;48.840;9.188;2023-07-13T08:22:51;24.20;88.90
11599;DHT22;5855;48.840;9.188;2023-07-13T08:25:18;24.40;86.80
11599;DHT22;5855;48.840;9.188;2023-07-13T08:27:46;24.50;86.60
11599;DHT22;5855;48.840;9.188;2023-07-13T08:30:14;24.30;88.40
11599;DHT22;5855;48.840;9.188;2023-07-13T08:32:41;24.30;86.70
11599;DHT22;5855;48.840;9.188;2023-07-13T08:35:08;24.30;86.90
11599;DHT22;5855;48.840;9.188;2023-07-13T08:37:35;24.60;86.20
11599;DHT22;5855;48.840;9.188;2023-07-13T08:40:02;24.90;84.80
11599;DHT22;5855;48.840;9.188;2023-07-13T08:42:35;24.70;84.70
11599;DHT22;5855;48.840;9.188;2023-07-13T08:45:18;24.80;84.40
11599;DHT22;5855;48.840;9.188;2023-07-13T08:47:50;25.10;85.00
11599;DHT22;5855;48.840;9.188;2023-07-13T08:50:22;25.30;80.90
11599;DHT22;5855;48.840;9.188;2023-07-13T08:52:52;25.40;81.00
11599;DHT22;5855;48.840;9.188;2023-07-13T08:55:21;25.40;79.40
11599;DHT22;5855;48.840;9.188;2023-07-13T08:57:56;25.30;81.30
11599;DHT22;5855;48.840;9.188;2023-07-13T09:00:35;25.50;80.70
11599;DHT22;5855;48.840;9.188;2023-07-13T09:03:03;25.70;79.90
11599;DHT22;5855;48.840;9.188;2023-07-13T09:05:37;26.00;77.80
11599;DHT22;5855;48.840;9.188;2023-07-13T09:08:31;26.30;75.10
11599;DHT22;5855;48.840;9.188;2023-07-13T09:11:14;26.20;73.30
11599;DHT22;5855;48.840;9.188;2023-07-13T09:13:52;26.50;74.20
11599;DHT22;5855;48.840;9.188;2023-07-13T09:16:23;26.80;73.90
11599;DHT22;5855;48.840;9.188;2023-07-13T09:18:52;27.10;74.30
11599;DHT22;5855;48.840;9.188;2023-07-13T09:21:24;27.30;72.80
11599;DHT22;5855;48.840;9.188;2023-07-13T09:23:54;27.30;70.40
11599;DHT22;5855;48.840;9.188;2023-07-13T09:26:24;27.30;70.80
11599;DHT22;5855;48.840;9.188;2023-07-13T09:28:55;27.30;68.90
11599;DHT22;5855;48.840;9.188;2023-07-13T09:31:28;27.50;70.60
11599;DHT22;5855;48.840;9.188;2023-07-13T09:33:57;27.50;69.00
11599;DHT22;5855;48.840;9.188;2023-07-13T09:36:27;27.50;66.50
11599;DHT22;5855;48.840;9.188;2023-07-13T09:39:05;27.60;68.80
11599;DHT22;5855;48.840;9.188;2023-07-13T09:41:45;27.10;67.60
11599;DHT22;5855;48.840;9.188;2023-07-13T09:44:15;27.50;67.30
11599;DHT22;5855;48.840;9.188;2023-07-13T09:46:46;27.50;65.30
11599;DHT22;5855;48.840;9.188;2023-07-13T09:49:14;27.50;66.20
11599;DHT22;5855;48.840;9.188;2023-07-13T09:51:42;27.80;65.40
11599;DHT22;5855;48.840;9.188;2023-07-13T09:54:18;28.30;64.50
11599;DHT22;5855;48.840;9.188;2023-07-13T09:56:45;28.60;64.10
11599;DHT22;5855;48.840;9.188;2023-07-13T09:59:19;28.30;62.40
11599;DHT22;5855;48.840;9.188;2023-07-13T10:01:47;28.40;62.70
11599;DHT22;5855;48.840;9.188;2023-07-13T10:04:18;28.40;63.00
11599;DHT22;5855;48.840;9.188;2023-07-13T10:06:46;28.20;62.70
11599;DHT22;5855;48.840;9.188;2023-07-13T10:09:16;28.80;60.10
11599;DHT22;5855;48.840;9.188;2023-07-13T10:11:43;28.80;60.40
11599;DHT22;5855;48.840;9.188;2023-07-13T10:14:14;29.00;58.90
11599;DHT22;5855;48.840;9.188;2023-07-13T10:16:43;28.60;58.70
11599;DHT22;5855;48.840;9.188;2023-07-13T10:19:15;29.00;58.90
11599;DHT22;5855;48.840;9.188;2023-07-13T10:21:52;29.60;58.50
11599;DHT22;5855;48.840;9.188;2023-07-13T10:24:22;29.30;57.20
11599;DHT22;5855;48.840;9.188;2023-07-13T10:26:54;28.70;58.80
11599;DHT22;5855;48.840;9.188;2023-07-13T10:29:24;28.90;58.30
11599;DHT22;5855;48.840;9.188;2023-07-13T10:31:53;28.90;58.70
11599;DHT22;5855;48.840;9.188;2023-07-13T10:34:21;29.30;57.40
11599;DHT22;5855;48.840;9.188;2023-07-13T10:36:49;29.40;56.70
11599;DHT22;5855;48.840;9.188;2023-07-13T10:39:17;29.90;55.50
11599;DHT22;5855;48.840;9.188;2023-07-13T10:41:47;30.30;54.00
11599;DHT22;5855;48.840;9.188;2023-07-13T10:44:21;30.60;53.60
11599;DHT22;5855;48.840;9.188;2023-07-13T10:46:52;31.10;52.80
11599;DHT22;5855;48.840;9.188;2023-07-13T10:49:22;31.60;51.20
11599;DHT22;5855;48.840;9.188;2023-07-13T10:51:49;31.80;50.50
11599;DHT22;5855;48.840;9.188;2023-07-13T10:54:20;32.00;50.10
11599;DHT22;5855;48.840;9.188;2023-07-13T10:57:07;32.20;49.40
11599;DHT22;5855;48.840;9.188;2023-07-13T10:59:35;32.00;47.60
11599;DHT22;5855;48.840;9.188;2023-07-13T11:02:11;32.10;47.60
11599;DHT22;5855;48.840;9.188;2023-07-13T11:04:45;32.30;46.70
11599;DHT22;5855;48.840;9.188;2023-07-13T11:07:19;32.00;46.50
11599;DHT22;5855;48.840;9.188;2023-07-13T11:09:50;31.30;47.30
11599;DHT22;5855;48.840;9.188;2023-07-13T11:12:52;31.30;46.10
11599;DHT22;5855;48.840;9.188;2023-07-13T11:15:44;32.00;45.70
11599;DHT22;5855;48.840;9.188;2023-07-13T11:18:21;32.40;44.60
11599;DHT22;5855;48.840;9.188;2023-07-13T11:20:49;32.40;44.50
11599;DHT22;5855;48.840;9.188;2023-07-13T11:23:28;31.70;43.80
11599;DHT22;5855;48.840;9.188;2023-07-13T11:25:56;30.70;45.20
11599;DHT22;5855;48.840;9.188;2023-07-13T11:28:26;30.80;45.10
11599;DHT22;5855;48.840;9.188;2023-07-13T11:31:03;31.40;46.10
11599;DHT22;5855;48.840;9.188;2023-07-13T11:33:56;31.20;43.80
11599;DHT22;5855;48.840;9.188;2023-07-13T11:36:30;30.40;44.40
11599;DHT22;5855;48.840;9.188;2023-07-13T11:39:01;30.00;45.30
11599;DHT22;5855;48.840;9.188;2023-07-13T11:41:31;29.60;45.70
11599;DHT22;5855;48.840;9.188;2023-07-13T11:44:06;29.20;46.80
11599;DHT22;5855;48.840;9.188;2023-07-13T11:46:33;29.30;46.60
11599;DHT22;5855;48.840;9.188;2023-07-13T11:49:00;29.50;46.30
11599;DHT22;5855;48.840;9.188;2023-07-13T11:51:31;29.70;46.60
11599;DHT22;5855;48.840;9.188;2023-07-13T11:54:03;30.80;45.80
11599;DHT22;5855;48.840;9.188;2023-07-13T11:56:32;32.10;44.50
11599;DHT22;5855;48.840;9.188;2023-07-13T11:59:04;31.80;42.00
11599;DHT22;5855;48.840;9.188;2023-07-13T12:01:32;30.90;43.70
11599;DHT22;5855;48.840;9.188;2023-07-13T12:04:01;31.20;44.00
11599;DHT22;5855;48.840;9.188;2023-07-13T12:06:32;31.60;43.30
11599;DHT22;5855;48.840;9.188;2023-07-13T12:09:08;31.20;42.80
11599;DHT22;5855;48.840;9.188;2023-07-13T12:11:41;30.30;43.00
11599;DHT22;5855;48.840;9.188;2023-07-13T12:14:14;29.80;44.10
11599;DHT22;5855;48.840;9.188;2023-07-13T12:16:42;29.90;44.30
11599;DHT22;5855;48.840;9.188;2023-07-13T12:19:17;30.30;44.90
11599;DHT22;5855;48.840;9.188;2023-07-13T12:21:47;31.30;43.40
11599;DHT22;5855;48.840;9.188;2023-07-13T12:24:15;32.60;41.30
11599;DHT22;5855;48.840;9.188;2023-07-13T12:26:43;33.40;39.80
11599;DHT22;5855;48.840;9.188;2023-07-13T12:29:15;33.00;38.30
11599;DHT22;5855;48.840;9.188;2023-07-13T12:31:44;33.30;38.10
11599;DHT22;5855;48.840;9.188;2023-07-13T12:34:14;32.70;37.40
11599;DHT22;5855;48.840;9.188;2023-07-13T12:36:48;32.90;37.10
11599;DHT22;5855;48.840;9.188;2023-07-13T12:39:19;33.60;37.50
11599;DHT22;5855;48.840;9.188;2023-07-13T12:41:47;34.10;35.60
11599;DHT22;5855;48.840;9.188;2023-07-13T12:44:17;34.10;35.40
11599;DHT22;5855;48.840;9.188;2023-07-13T12:46:54;34.40;35.30
11599;DHT22;5855;48.840;9.188;2023-07-13T12:49:26;34.70;34.80
11599;DHT22;5855;48.840;9.188;2023-07-13T12:52:00;35.10;33.10
11599;DHT22;5855;48.840;9.188;2023-07-13T12:54:28;34.90;32.20
11599;DHT22;5855;48.840;9.188;2023-07-13T12:56:56;35.10;32.80
11599;DHT22;5855;48.840;9.188;2023-07-13T12:59:28;35.50;30.40
11599;DHT22;5855;48.840;9.188;2023-07-13T13:01:55;35.50;29.90
11599;DHT22;5855;48.840;9.188;2023-07-13T13:04:23;34.40;30.70
11599;DHT22;5855;48.840;9.188;2023-07-13T13:07:02;33.80;31.80
11599;DHT22;5855;48.840;9.188;2023-07-13T13:09:30;34.60;31.90
11599;DHT22;5855;48.840;9.188;2023-07-13T13:11:58;34.90;29.50
11599;DHT22;5855;48.840;9.188;2023-07-13T13:14:24;34.40;29.20
11599;DHT22;5855;48.840;9.188;2023-07-13T13:16:52;34.30;29.90
11599;DHT22;5855;48.840;9.188;2023-07-13T13:19:21;34.70;29.70
11599;DHT22;5855;48.840;9.188;2023-07-13T13:21:49;34.20;29.50
11599;DHT22;5855;48.840;9.188;2023-07-13T13:24:21;34.20;29.70
11599;DHT22;5855;48.840;9.188;2023-07-13T13:26:49;35.70;29.40
11599;DHT22;5855;48.840;9.188;2023-07-13T13:29:18;35.50;28.60
11599;DHT22;5855;48.840;9.188;2023-07-13T13:31:46;35.60;29.00
11599;DHT22;5855;48.840;9.188;2023-07-13T13:34:15;36.00;27.80
11599;DHT22;5855;48.840;9.188;2023-07-13T13:36:42;36.60;27.80
11599;DHT22;5855;48.840;9.188;2023-07-13T13:39:21;35.80;26.90
11599;DHT22;5855;48.840;9.188;2023-07-13T13:41:49;36.70;27.00
11599;DHT22;5855;48.840;9.188;2023-07-13T13:44:17;36.30;27.50
11599;DHT22;5855;48.840;9.188;2023-07-13T13:46:45;36.80;26.90
11599;DHT22;5855;48.840;9.188;2023-07-13T13:49:14;36.70;25.80
11599;DHT22;5855;48.840;9.188;2023-07-13T13:51:42;36.50;26.10
11599;DHT22;5855;48.840;9.188;2023-07-13T13:54:12;36.30;24.90
11599;DHT22;5855;48.840;9.188;2023-07-13T13:56:41;36.40;26.00
11599;DHT22;5855;48.840;9.188;2023-07-13T13:59:08;36.10;25.60
11599;DHT22;5855;48.840;9.188;2023-07-13T14:01:35;36.90;25.30
11599;DHT22;5855;48.840;9.188;2023-07-13T14:04:03;37.10;25.00
11599;DHT22;5855;48.840;9.188;2023-07-13T14:06:31;37.80;24.70
11599;DHT22;5855;48.840;9.188;2023-07-13T14:08:59;38.40;23.70
11599;DHT22;5855;48.840;9.188;2023-07-13T14:11:26;37.90;23.40
11599;DHT22;5855;48.840;9.188;2023-07-13T14:13:56;36.90;24.00
11599;DHT22;5855;48.840;9.188;2023-07-13T14:16:33;37.50;24.50
11599;DHT22;5855;48.840;9.188;2023-07-13T14:19:00;37.20;23.90
11599;DHT22;5855;48.840;9.188;2023-07-13T14:21:28;36.60;23.90
11599;DHT22;5855;48.840;9.188;2023-07-13T14:23:55;36.80;24.00
11599;DHT22;5855;48.840;9.188;2023-07-13T14:26:24;37.80;23.40
11599;DHT22;5855;48.840;9.188;2023-07-13T14:28:55;37.80;22.50
11599;DHT22;5855;48.840;9.188;2023-07-13T14:31:22;37.80;22.40
11599;DHT22;5855;48.840;9.188;2023-07-13T14:33:49;37.40;22.20
11599;DHT22;5855;48.840;9.188;2023-07-13T14:36:26;37.40;22.70
11599;DHT22;5855;48.840;9.188;2023-07-13T14:38:55;37.70;22.10
11599;DHT22;5855;48.840;9.188;2023-07-13T14:41:22;36.50;23.10
11599;DHT22;5855;48.840;9.188;2023-07-13T14:43:49;36.70;23.30
11599;DHT22;5855;48.840;9.188;2023-07-13T14:46:26;37.30;22.90
11599;DHT22;5855;48.840;9.188;2023-07-13T14:49:00;37.70;23.00
11599;DHT22;5855;48.840;9.188;2023-07-13T14:51:28;37.50;22.50
11599;DHT22;5855;48.840;9.188;2023-07-13T14:53:54;36.40;24.10
11599;DHT22;5855;48.840;9.188;2023-07-13T14:56:21;36.30;23.40
11599;DHT22;5855;48.840;9.188;2023-07-13T14:58:48;36.80;23.90
11599;DHT22;5855;48.840;9.188;2023-07-13T15:01:15;36.50;23.50
11599;DHT22;5855;48.840;9.188;2023-07-13T15:03:47;36.90;23.70
11599;DHT22;5855;48.840;9.188;2023-07-13T15:06:14;36.10;24.00
11599;DHT22;5855;48.840;9.188;2023-07-13T15:08:41;36.90;23.90
11599;DHT22;5855;48.840;9.188;2023-07-13T15:11:08;37.40;23.20
11599;DHT22;5855;48.840;9.188;2023-07-13T15:13:37;36.80;23.40
11599;DHT22;5855;48.840;9.188;2023-07-13T15:16:05;35.60;24.50
11599;DHT22;5855;48.840;9.188;2023-07-13T15:18:34;35.30;24.70
11599;DHT22;5855;48.840;9.188;2023-07-13T15:21:09;35.00;25.10
11599;DHT22;5855;48.840;9.188;2023-07-13T15:23:39;35.80;24.40
11599;DHT22;5855;48.840;9.188;2023-07-13T15:26:09;36.00;23.70
11599;DHT22;5855;48.840;9.188;2023-07-13T15:28:37;36.60;23.60
11599;DHT22;5855;48.840;9.188;2023-07-13T15:31:16;36.50;23.90
11599;DHT22;5855;48.840;9.188;2023-07-13T15:33:43;37.00;23.40
11599;DHT22;5855;48.840;9.188;2023-07-13T15:36:11;37.50;23.20
11599;DHT22;5855;48.840;9.188;2023-07-13T15:38:38;37.70;22.50
11599;DHT22;5855;48.840;9.188;2023-07-13T15:41:14;38.00;22.20
11599;DHT22;5855;48.840;9.188;2023-07-13T15:43:42;37.70;22.40
11599;DHT22;5855;48.840;9.188;2023-07-13T15:46:17;38.20;22.20
11599;DHT22;5855;48.840;9.188;2023-07-13T15:48:53;37.10;22.40
11599;DHT22;5855;48.840;9.188;2023-07-13T15:51:24;36.50;23.40
11599;DHT22;5855;48.840;9.188;2023-07-13T15:53:53;35.70;23.60
11599;DHT22;5855;48.840;9.188;2023-07-13T15:56:24;34.40;24.70